METAR AND TAF INFORMATION
METAR FOR EHVK
ADDS - METARS form results

(0707 UTC 23 January 2019)
Data provider http://aviationweather.gov/metar/data/
 
METAR text: EHVK 230655Z AUTO 08005KT 2600 BR OVC020 M06/M06 Q0998 BLACKYLO
Conditions at: EHVK (VOLKEL RNLAFB , NL) observed 0655 UTC 23 January 2019
Temperature: -6.0°C (21°F)
Dewpoint: -6.0°C (21°F) [RH = 100%]
Pressure (altimeter): 29.47 inches Hg (998.0 mb)
Winds: from the E (80 degrees) at 6 MPH (5 knots; 2.6 m/s)
Visibility: 1.62 miles (2.61 km)
Ceiling: 2000 feet AGL
Clouds: overcast cloud deck at 2000 feet AGL
Weather: BR  (mist)

METAR text: EHVK 230642Z AUTO 09005KT 2100 BR OVC022 M06/M06 Q0998 BLACKYLO
Conditions at: EHVK (VOLKEL RNLAFB , NL) observed 0642 UTC 23 January 2019
Temperature: -6.0°C (21°F)
Dewpoint: -6.0°C (21°F) [RH = 100%]
Pressure (altimeter): 29.47 inches Hg (998.0 mb)
Winds: from the E (90 degrees) at 6 MPH (5 knots; 2.6 m/s)
Visibility: 1.30 miles (2.09 km)
Ceiling: 2200 feet AGL
Clouds: overcast cloud deck at 2200 feet AGL
Weather: BR  (mist)

METAR text: EHVK 230638Z AUTO 09005KT 2000 BR SCT022 OVC180 M06/M06 Q0998 BLACKYLO
Conditions at: EHVK (VOLKEL RNLAFB , NL) observed 0638 UTC 23 January 2019
Temperature: -6.0°C (21°F)
Dewpoint: -6.0°C (21°F) [RH = 100%]
Pressure (altimeter): 29.47 inches Hg (998.0 mb)
Winds: from the E (90 degrees) at 6 MPH (5 knots; 2.6 m/s)
Visibility: 1.24 miles (2.00 km)
Ceiling: 18000 feet AGL
Clouds: scattered clouds at 2200 feet AGL
overcast cloud deck at 18000 feet AGL
Weather: BR  (mist)

METAR text: EHVK 230625Z AUTO 09004KT 2400 BR OVC190 M06/M06 Q0998 BLACKYLO
Conditions at: EHVK (VOLKEL RNLAFB , NL) observed 0625 UTC 23 January 2019
Temperature: -6.0°C (21°F)
Dewpoint: -6.0°C (21°F) [RH = 100%]
Pressure (altimeter): 29.47 inches Hg (998.0 mb)
Winds: from the E (90 degrees) at 5 MPH (4 knots; 2.1 m/s)
Visibility: 1.49 miles (2.40 km)
Ceiling: 19000 feet AGL
Clouds: overcast cloud deck at 19000 feet AGL
Weather: BR  (mist)

Forecast for: EHVK (VOLKEL RNLAFB , NL)
Text: TAF EHVK 230526Z 2306/2318 07005KT 2000 BR NSC
Forecast period: 0600 to 0900 UTC 23 January 2019
Forecast type: FROM: standard forecast or significant change
Winds: from the ENE (70 degrees) at 6 MPH (5 knots; 2.6 m/s)
Visibility: 1.24 miles (2.00 km)
Ceiling: unknown
Clouds: missing
Weather: BR  (mist)
Text: PROB40
Forecast period: 0600 to 1000 UTC 23 January 2019
Forecast type: TEMPORARY: The following changes expected for less than half the time period
Visibility: 0.31 miles (0.50 km)
Ceiling: unknown
Clouds: missing
Weather: FZFG  (freezing fog)
Text: TEMPO 2306/2310 0500 FZFG
Forecast period: 0900 to 1800 UTC 23 January 2019
Forecast type: BECOMING: Conditions expected to become as follows by 1100 UTC 23 January 2019
Winds: from the ENE (70 degrees) at 6 MPH (5 knots; 2.6 m/s)
Visibility: 4 miles (6 km)
Ceiling: unknown
Clouds: missing
Weather: NSW  (no significant weather)

 AIRPORT MAP

 RUNWAY INFORMATION
Runway 06L Runway length 9922 ft Runway width 148 ft
Runway elevation 71 ft Runway displaced threshold 444 ft Runway heading 58
Runway 24R Runway length 9922 ft Runway width 148 ft
Runway elevation 64 ft Runway displaced threshold 444 ft Runway heading 238
Runway 06R Runway length 9931 ft Runway width 74 ft
Runway elevation 72 ft Runway displaced threshold 446 ft Runway heading 58
Runway 24L Runway length 9931 ft Runway width 74 ft
Runway elevation 65 ft Runway displaced threshold 446 ft Runway heading 238

 AIRPORT FREQUENCIES
Type APP Name RAPCON SOU Frequency 123.175 MHZ
Type GND Name GND Frequency 38.677 MHZ
Type TWR Name TWR Frequency 133.425 MHZ

 AIRPORT NEAR NAVIGATION AIDS
Type TACAN Name Volkel Frequency 108300 KHZ